sensor_id;sensor_type;location;lat;lon;timestamp;pressure;altitude;pressure_sealevel;temperature;humidity
30554;BME280;17335;50.720;7.452;2023-04-25T00:02:13;98680.78;;;5.76;100.00
30554;BME280;17335;50.720;7.452;2023-04-25T00:04:40;98688.09;;;5.84;100.00
30554;BME280;17335;50.720;7.452;2023-04-25T00:07:07;98679.97;;;5.86;100.00
30554;BME280;17335;50.720;7.452;2023-04-25T00:09:34;98684.22;;;5.88;100.00
30554;BME280;17335;50.720;7.452;2023-04-25T00:12:00;98678.88;;;5.88;100.00
30554;BME280;17335;50.720;7.452;2023-04-25T00:14:28;98682.72;;;5.95;100.00
30554;BME280;17335;50.720;7.452;2023-04-25T00:16:55;98678.34;;;5.94;100.00
30554;BME280;17335;50.720;7.452;2023-04-25T00:19:22;98673.00;;;5.94;100.00
30554;BME280;17335;50.720;7.452;2023-04-25T00:21:48;98686.34;;;5.94;100.00
30554;BME280;17335;50.720;7.452;2023-04-25T00:24:15;98692.66;;;5.93;100.00
30554;BME280;17335;50.720;7.452;2023-04-25T00:26:42;98679.03;;;5.87;100.00
30554;BME280;17335;50.720;7.452;2023-04-25T00:29:08;98686.69;;;5.80;100.00
30554;BME280;17335;50.720;7.452;2023-04-25T00:31:35;98684.41;;;5.75;100.00
30554;BME280;17335;50.720;7.452;2023-04-25T00:34:02;98688.31;;;5.71;100.00
30554;BME280;17335;50.720;7.452;2023-04-25T00:36:28;98689.81;;;5.64;100.00
30554;BME280;17335;50.720;7.452;2023-04-25T00:38:55;98687.53;;;5.59;100.00
30554;BME280;17335;50.720;7.452;2023-04-25T00:41:22;98682.31;;;5.58;100.00
30554;BME280;17335;50.720;7.452;2023-04-25T00:43:49;98682.31;;;5.58;100.00
30554;BME280;17335;50.720;7.452;2023-04-25T00:46:17;98679.72;;;5.47;100.00
30554;BME280;17335;50.720;7.452;2023-04-25T00:48:45;98675.50;;;5.44;100.00
30554;BME280;17335;50.720;7.452;2023-04-25T00:51:17;98672.63;;;5.36;100.00
30554;BME280;17335;50.720;7.452;2023-04-25T00:53:45;98675.94;;;5.28;100.00
30554;BME280;17335;50.720;7.452;2023-04-25T00:56:12;98671.13;;;5.22;100.00
30554;BME280;17335;50.720;7.452;2023-04-25T00:58:40;98677.47;;;5.10;100.00
30554;BME280;17335;50.720;7.452;2023-04-25T01:01:10;98688.25;;;4.97;100.00
30554;BME280;17335;50.720;7.452;2023-04-25T01:03:38;98678.38;;;4.87;100.00
30554;BME280;17335;50.720;7.452;2023-04-25T01:06:09;98677.69;;;4.74;100.00
30554;BME280;17335;50.720;7.452;2023-04-25T01:08:38;98680.59;;;4.71;100.00
30554;BME280;17335;50.720;7.452;2023-04-25T01:11:05;98687.13;;;4.67;100.00
30554;BME280;17335;50.720;7.452;2023-04-25T01:13:34;98696.09;;;4.55;100.00
30554;BME280;17335;50.720;7.452;2023-04-25T01:16:02;98694.53;;;4.41;100.00
30554;BME280;17335;50.720;7.452;2023-04-25T01:18:29;98695.59;;;4.38;100.00
30554;BME280;17335;50.720;7.452;2023-04-25T01:20:55;98693.34;;;4.34;100.00
30554;BME280;17335;50.720;7.452;2023-04-25T01:23:24;98682.59;;;4.35;100.00
30554;BME280;17335;50.720;7.452;2023-04-25T01:25:51;98694.28;;;4.32;100.00
30554;BME280;17335;50.720;7.452;2023-04-25T01:28:18;98691.75;;;4.31;100.00
30554;BME280;17335;50.720;7.452;2023-04-25T01:30:46;98692.97;;;4.27;100.00
30554;BME280;17335;50.720;7.452;2023-04-25T01:33:14;98688.00;;;4.22;100.00
30554;BME280;17335;50.720;7.452;2023-04-25T01:35:40;98689.00;;;4.21;100.00
30554;BME280;17335;50.720;7.452;2023-04-25T01:38:07;98694.41;;;4.20;100.00
30554;BME280;17335;50.720;7.452;2023-04-25T01:40:34;98696.31;;;4.18;100.00
30554;BME280;17335;50.720;7.452;2023-04-25T01:43:03;98698.25;;;4.16;100.00
30554;BME280;17335;50.720;7.452;2023-04-25T01:45:30;98709.38;;;4.09;100.00
30554;BME280;17335;50.720;7.452;2023-04-25T01:47:58;98700.44;;;3.99;100.00
30554;BME280;17335;50.720;7.452;2023-04-25T01:50:26;98710.19;;;3.99;100.00
30554;BME280;17335;50.720;7.452;2023-04-25T01:52:52;98717.94;;;3.90;100.00
30554;BME280;17335;50.720;7.452;2023-04-25T01:55:20;98714.41;;;3.90;100.00
30554;BME280;17335;50.720;7.452;2023-04-25T01:57:47;98725.50;;;3.84;100.00
30554;BME280;17335;50.720;7.452;2023-04-25T02:00:14;98723.44;;;3.76;100.00
30554;BME280;17335;50.720;7.452;2023-04-25T02:02:40;98725.63;;;3.82;100.00
30554;BME280;17335;50.720;7.452;2023-04-25T02:05:07;98728.13;;;3.72;100.00
30554;BME280;17335;50.720;7.452;2023-04-25T02:07:34;98732.59;;;3.72;100.00
30554;BME280;17335;50.720;7.452;2023-04-25T02:10:01;98731.50;;;3.74;100.00
30554;BME280;17335;50.720;7.452;2023-04-25T02:12:27;98730.06;;;3.70;100.00
30554;BME280;17335;50.720;7.452;2023-04-25T02:14:54;98726.47;;;3.71;100.00
30554;BME280;17335;50.720;7.452;2023-04-25T02:17:21;98736.81;;;3.74;100.00
30554;BME280;17335;50.720;7.452;2023-04-25T02:19:49;98733.44;;;3.72;100.00
30554;BME280;17335;50.720;7.452;2023-04-25T02:22:16;98727.91;;;3.75;100.00
30554;BME280;17335;50.720;7.452;2023-04-25T02:24:43;98730.81;;;3.84;100.00
30554;BME280;17335;50.720;7.452;2023-04-25T02:27:09;98733.47;;;3.95;100.00
30554;BME280;17335;50.720;7.452;2023-04-25T02:29:36;98734.09;;;3.99;100.00
30554;BME280;17335;50.720;7.452;2023-04-25T02:32:03;98730.03;;;4.06;100.00
30554;BME280;17335;50.720;7.452;2023-04-25T02:34:29;98740.38;;;4.09;100.00
30554;BME280;17335;50.720;7.452;2023-04-25T02:36:56;98739.09;;;4.15;100.00
30554;BME280;17335;50.720;7.452;2023-04-25T02:39:23;98734.97;;;4.22;100.00
30554;BME280;17335;50.720;7.452;2023-04-25T02:41:52;98732.81;;;4.27;100.00
30554;BME280;17335;50.720;7.452;2023-04-25T02:44:18;98734.97;;;4.33;100.00
30554;BME280;17335;50.720;7.452;2023-04-25T02:46:45;98737.88;;;4.41;100.00
30554;BME280;17335;50.720;7.452;2023-04-25T02:49:13;98737.19;;;4.50;100.00
30554;BME280;17335;50.720;7.452;2023-04-25T02:51:39;98736.69;;;4.57;100.00
30554;BME280;17335;50.720;7.452;2023-04-25T02:54:06;98737.16;;;4.62;100.00
30554;BME280;17335;50.720;7.452;2023-04-25T02:56:33;98741.88;;;4.69;100.00
30554;BME280;17335;50.720;7.452;2023-04-25T02:58:59;98737.88;;;4.75;100.00
30554;BME280;17335;50.720;7.452;2023-04-25T03:01:26;98732.19;;;4.80;100.00
30554;BME280;17335;50.720;7.452;2023-04-25T03:03:52;98739.06;;;4.94;100.00
30554;BME280;17335;50.720;7.452;2023-04-25T03:06:19;98741.38;;;4.87;100.00
30554;BME280;17335;50.720;7.452;2023-04-25T03:08:47;98739.41;;;4.89;100.00
30554;BME280;17335;50.720;7.452;2023-04-25T03:11:13;98734.34;;;4.97;100.00
30554;BME280;17335;50.720;7.452;2023-04-25T03:13:40;98736.75;;;5.00;100.00
30554;BME280;17335;50.720;7.452;2023-04-25T03:16:06;98729.59;;;5.01;100.00
30554;BME280;17335;50.720;7.452;2023-04-25T03:18:33;98724.28;;;5.01;100.00
30554;BME280;17335;50.720;7.452;2023-04-25T03:20:59;98730.56;;;5.00;100.00
30554;BME280;17335;50.720;7.452;2023-04-25T03:23:26;98725.84;;;5.03;100.00
30554;BME280;17335;50.720;7.452;2023-04-25T03:25:53;98725.25;;;5.00;100.00
30554;BME280;17335;50.720;7.452;2023-04-25T03:28:19;98728.91;;;4.99;100.00
30554;BME280;17335;50.720;7.452;2023-04-25T03:30:46;98730.50;;;4.90;100.00
30554;BME280;17335;50.720;7.452;2023-04-25T03:33:12;98730.38;;;4.80;100.00
30554;BME280;17335;50.720;7.452;2023-04-25T03:35:39;98727.25;;;4.75;100.00
30554;BME280;17335;50.720;7.452;2023-04-25T03:38:06;98726.16;;;4.66;100.00
30554;BME280;17335;50.720;7.452;2023-04-25T03:40:33;98728.22;;;4.63;100.00
30554;BME280;17335;50.720;7.452;2023-04-25T03:42:59;98727.13;;;4.65;100.00
30554;BME280;17335;50.720;7.452;2023-04-25T03:45:26;98725.56;;;4.51;100.00
30554;BME280;17335;50.720;7.452;2023-04-25T03:47:53;98718.56;;;4.50;100.00
30554;BME280;17335;50.720;7.452;2023-04-25T03:50:19;98723.53;;;4.44;100.00
30554;BME280;17335;50.720;7.452;2023-04-25T03:52:46;98724.59;;;4.41;100.00
30554;BME280;17335;50.720;7.452;2023-04-25T03:55:13;98730.03;;;4.40;100.00
30554;BME280;17335;50.720;7.452;2023-04-25T03:57:39;98729.81;;;4.31;100.00
30554;BME280;17335;50.720;7.452;2023-04-25T04:00:07;98733.66;;;4.27;100.00
30554;BME280;17335;50.720;7.452;2023-04-25T04:02:33;98739.59;;;4.20;100.00
30554;BME280;17335;50.720;7.452;2023-04-25T04:05:02;98737.16;;;4.17;100.00
30554;BME280;17335;50.720;7.452;2023-04-25T04:07:29;98741.75;;;4.15;100.00
30554;BME280;17335;50.720;7.452;2023-04-25T04:09:57;98743.78;;;4.11;100.00
30554;BME280;17335;50.720;7.452;2023-04-25T04:12:23;98746.78;;;4.06;100.00
30554;BME280;17335;50.720;7.452;2023-04-25T04:14:50;98743.53;;;4.14;100.00
30554;BME280;17335;50.720;7.452;2023-04-25T04:17:16;98741.38;;;4.19;100.00
30554;BME280;17335;50.720;7.452;2023-04-25T04:19:43;98750.09;;;4.32;100.00
30554;BME280;17335;50.720;7.452;2023-04-25T04:22:10;98749.97;;;4.34;100.00
30554;BME280;17335;50.720;7.452;2023-04-25T04:24:37;98743.69;;;4.35;100.00
30554;BME280;17335;50.720;7.452;2023-04-25T04:27:03;98749.00;;;4.46;100.00
30554;BME280;17335;50.720;7.452;2023-04-25T04:29:30;98751.44;;;4.61;100.00
30554;BME280;17335;50.720;7.452;2023-04-25T04:31:57;98743.56;;;4.59;100.00
30554;BME280;17335;50.720;7.452;2023-04-25T04:34:24;98752.50;;;4.69;100.00
30554;BME280;17335;50.720;7.452;2023-04-25T04:36:53;98753.47;;;4.68;100.00
30554;BME280;17335;50.720;7.452;2023-04-25T04:39:19;98753.81;;;4.75;100.00
30554;BME280;17335;50.720;7.452;2023-04-25T04:41:46;98753.81;;;4.75;100.00
30554;BME280;17335;50.720;7.452;2023-04-25T04:44:13;98747.88;;;4.83;100.00
30554;BME280;17335;50.720;7.452;2023-04-25T04:46:40;98762.72;;;4.97;100.00
30554;BME280;17335;50.720;7.452;2023-04-25T04:49:09;98762.13;;;4.93;100.00
30554;BME280;17335;50.720;7.452;2023-04-25T04:51:37;98773.03;;;4.90;100.00
30554;BME280;17335;50.720;7.452;2023-04-25T04:54:04;98770.47;;;5.00;100.00
30554;BME280;17335;50.720;7.452;2023-04-25T04:56:30;98776.78;;;4.99;100.00
30554;BME280;17335;50.720;7.452;2023-04-25T04:58:58;98767.56;;;5.14;100.00
30554;BME280;17335;50.720;7.452;2023-04-25T05:01:26;98772.41;;;5.09;100.00
30554;BME280;17335;50.720;7.452;2023-04-25T05:03:52;98766.97;;;5.11;100.00
30554;BME280;17335;50.720;7.452;2023-04-25T05:06:20;98775.78;;;5.11;100.00
30554;BME280;17335;50.720;7.452;2023-04-25T05:08:47;98782.53;;;5.15;100.00
30554;BME280;17335;50.720;7.452;2023-04-25T05:11:14;98781.41;;;5.29;100.00
30554;BME280;17335;50.720;7.452;2023-04-25T05:13:40;98787.97;;;5.25;100.00
30554;BME280;17335;50.720;7.452;2023-04-25T05:16:07;98785.19;;;5.26;100.00
30554;BME280;17335;50.720;7.452;2023-04-25T05:18:34;98786.38;;;5.22;100.00
30554;BME280;17335;50.720;7.452;2023-04-25T05:21:01;98782.53;;;5.26;100.00
30554;BME280;17335;50.720;7.452;2023-04-25T05:23:27;98791.44;;;5.37;100.00
30554;BME280;17335;50.720;7.452;2023-04-25T05:25:57;98803.06;;;5.36;100.00
30554;BME280;17335;50.720;7.452;2023-04-25T05:28:23;98798.72;;;5.35;100.00
30554;BME280;17335;50.720;7.452;2023-04-25T05:30:50;98805.59;;;5.37;100.00
30554;BME280;17335;50.720;7.452;2023-04-25T05:33:17;98803.28;;;5.33;100.00
30554;BME280;17335;50.720;7.452;2023-04-25T05:35:44;98804.41;;;5.30;100.00
30554;BME280;17335;50.720;7.452;2023-04-25T05:38:11;98815.88;;;5.42;100.00
30554;BME280;17335;50.720;7.452;2023-04-25T05:40:37;98819.00;;;5.47;100.00
30554;BME280;17335;50.720;7.452;2023-04-25T05:43:04;98820.69;;;5.48;100.00
30554;BME280;17335;50.720;7.452;2023-04-25T05:45:30;98807.84;;;5.53;100.00
30554;BME280;17335;50.720;7.452;2023-04-25T05:47:57;98806.63;;;5.57;100.00
30554;BME280;17335;50.720;7.452;2023-04-25T05:50:24;98807.56;;;5.68;100.00
30554;BME280;17335;50.720;7.452;2023-04-25T05:52:50;98816.59;;;5.76;100.00
30554;BME280;17335;50.720;7.452;2023-04-25T05:55:17;98820.94;;;5.77;100.00
30554;BME280;17335;50.720;7.452;2023-04-25T05:57:45;98817.19;;;5.80;100.00
30554;BME280;17335;50.720;7.452;2023-04-25T06:00:13;98824.06;;;5.82;100.00
30554;BME280;17335;50.720;7.452;2023-04-25T06:02:41;98820.09;;;5.77;100.00
30554;BME280;17335;50.720;7.452;2023-04-25T06:05:08;98822.59;;;5.90;100.00
30554;BME280;17335;50.720;7.452;2023-04-25T06:07:35;98819.44;;;5.96;100.00
30554;BME280;17335;50.720;7.452;2023-04-25T06:10:02;98833.81;;;6.05;100.00
30554;BME280;17335;50.720;7.452;2023-04-25T06:12:30;98832.97;;;6.04;100.00
30554;BME280;17335;50.720;7.452;2023-04-25T06:14:56;98835.25;;;6.09;100.00
30554;BME280;17335;50.720;7.452;2023-04-25T06:17:23;98829.66;;;6.12;100.00
30554;BME280;17335;50.720;7.452;2023-04-25T06:19:50;98832.53;;;6.20;100.00
30554;BME280;17335;50.720;7.452;2023-04-25T06:22:16;98840.28;;;6.23;100.00
30554;BME280;17335;50.720;7.452;2023-04-25T06:24:43;98842.34;;;6.19;100.00
30554;BME280;17335;50.720;7.452;2023-04-25T06:27:10;98832.94;;;6.36;100.00
30554;BME280;17335;50.720;7.452;2023-04-25T06:29:36;98835.69;;;6.56;100.00
30554;BME280;17335;50.720;7.452;2023-04-25T06:32:03;98828.53;;;6.56;100.00
30554;BME280;17335;50.720;7.452;2023-04-25T06:34:29;98833.44;;;6.82;100.00
30554;BME280;17335;50.720;7.452;2023-04-25T06:36:56;98836.03;;;6.93;100.00
30554;BME280;17335;50.720;7.452;2023-04-25T06:39:23;98832.16;;;7.07;100.00
30554;BME280;17335;50.720;7.452;2023-04-25T06:41:51;98832.41;;;7.04;100.00
30554;BME280;17335;50.720;7.452;2023-04-25T06:44:20;98837.41;;;6.88;100.00
30554;BME280;17335;50.720;7.452;2023-04-25T06:46:47;98829.63;;;6.75;100.00
30554;BME280;17335;50.720;7.452;2023-04-25T06:49:14;98836.78;;;6.74;100.00
30554;BME280;17335;50.720;7.452;2023-04-25T06:51:40;98832.22;;;6.65;100.00
30554;BME280;17335;50.720;7.452;2023-04-25T06:54:07;98835.91;;;6.64;100.00
30554;BME280;17335;50.720;7.452;2023-04-25T06:56:35;98841.47;;;6.61;100.00
30554;BME280;17335;50.720;7.452;2023-04-25T06:59:02;98836.69;;;6.55;100.00
30554;BME280;17335;50.720;7.452;2023-04-25T07:01:29;98845.75;;;6.73;100.00
30554;BME280;17335;50.720;7.452;2023-04-25T07:03:57;98838.75;;;6.72;100.00
30554;BME280;17335;50.720;7.452;2023-04-25T07:06:23;98846.91;;;6.81;100.00
30554;BME280;17335;50.720;7.452;2023-04-25T07:08:52;98852.16;;;6.61;100.00
30554;BME280;17335;50.720;7.452;2023-04-25T07:11:18;98848.41;;;6.73;100.00
30554;BME280;17335;50.720;7.452;2023-04-25T07:13:45;98854.53;;;6.85;100.00
30554;BME280;17335;50.720;7.452;2023-04-25T07:16:12;98848.41;;;7.04;100.00
30554;BME280;17335;50.720;7.452;2023-04-25T07:18:39;98837.97;;;7.22;100.00
30554;BME280;17335;50.720;7.452;2023-04-25T07:21:05;98843.31;;;7.32;100.00
30554;BME280;17335;50.720;7.452;2023-04-25T07:23:32;98849.34;;;7.24;100.00
30554;BME280;17335;50.720;7.452;2023-04-25T07:25:58;98840.06;;;7.19;100.00
30554;BME280;17335;50.720;7.452;2023-04-25T07:28:25;98840.38;;;7.35;100.00
30554;BME280;17335;50.720;7.452;2023-04-25T07:30:52;98849.97;;;7.38;100.00
30554;BME280;17335;50.720;7.452;2023-04-25T07:33:19;98837.53;;;7.17;100.00
30554;BME280;17335;50.720;7.452;2023-04-25T07:35:46;98846.25;;;7.19;100.00
30554;BME280;17335;50.720;7.452;2023-04-25T07:38:13;98838.63;;;7.14;100.00
30554;BME280;17335;50.720;7.452;2023-04-25T07:40:40;98847.47;;;7.15;100.00
30554;BME280;17335;50.720;7.452;2023-04-25T07:43:07;98839.47;;;7.15;100.00
30554;BME280;17335;50.720;7.452;2023-04-25T07:45:34;98856.44;;;7.04;100.00
30554;BME280;17335;50.720;7.452;2023-04-25T07:48:00;98840.81;;;7.40;100.00
30554;BME280;17335;50.720;7.452;2023-04-25T07:50:27;98837.63;;;7.85;100.00
30554;BME280;17335;50.720;7.452;2023-04-25T07:52:54;98845.25;;;8.00;100.00
30554;BME280;17335;50.720;7.452;2023-04-25T07:55:20;98841.03;;;8.07;100.00
30554;BME280;17335;50.720;7.452;2023-04-25T07:57:47;98848.63;;;8.02;100.00
30554;BME280;17335;50.720;7.452;2023-04-25T08:00:14;98849.91;;;7.98;100.00
30554;BME280;17335;50.720;7.452;2023-04-25T08:02:41;98852.97;;;7.83;100.00
30554;BME280;17335;50.720;7.452;2023-04-25T08:05:08;98850.97;;;7.66;100.00
30554;BME280;17335;50.720;7.452;2023-04-25T08:07:38;98859.84;;;7.57;100.00
30554;BME280;17335;50.720;7.452;2023-04-25T08:10:06;98861.38;;;7.59;100.00
30554;BME280;17335;50.720;7.452;2023-04-25T08:12:33;98861.13;;;7.72;100.00
30554;BME280;17335;50.720;7.452;2023-04-25T08:15:00;98874.91;;;7.87;100.00
30554;BME280;17335;50.720;7.452;2023-04-25T08:17:26;98871.28;;;7.98;100.00
30554;BME280;17335;50.720;7.452;2023-04-25T08:19:53;98873.38;;;7.94;100.00
30554;BME280;17335;50.720;7.452;2023-04-25T08:22:20;98881.94;;;7.78;100.00
30554;BME280;17335;50.720;7.452;2023-04-25T08:24:47;98890.78;;;7.69;100.00
30554;BME280;17335;50.720;7.452;2023-04-25T08:27:13;98896.09;;;7.59;100.00
30554;BME280;17335;50.720;7.452;2023-04-25T08:29:41;98889.75;;;7.50;100.00
30554;BME280;17335;50.720;7.452;2023-04-25T08:32:08;98895.91;;;7.41;100.00
30554;BME280;17335;50.720;7.452;2023-04-25T08:34:34;98906.44;;;7.33;100.00
30554;BME280;17335;50.720;7.452;2023-04-25T08:37:02;98906.16;;;7.36;100.00
30554;BME280;17335;50.720;7.452;2023-04-25T08:39:30;98910.78;;;7.34;100.00
30554;BME280;17335;50.720;7.452;2023-04-25T08:41:57;98906.47;;;7.43;100.00
30554;BME280;17335;50.720;7.452;2023-04-25T08:44:24;98915.88;;;7.47;100.00
30554;BME280;17335;50.720;7.452;2023-04-25T08:46:52;98918.59;;;7.57;100.00
30554;BME280;17335;50.720;7.452;2023-04-25T08:49:18;98930.97;;;7.58;100.00
30554;BME280;17335;50.720;7.452;2023-04-25T08:51:46;98929.28;;;7.57;100.00
30554;BME280;17335;50.720;7.452;2023-04-25T08:54:14;98926.91;;;7.73;100.00
30554;BME280;17335;50.720;7.452;2023-04-25T08:57:02;98930.47;;;7.83;100.00
30554;BME280;17335;50.720;7.452;2023-04-25T08:59:32;98938.97;;;8.08;100.00
30554;BME280;17335;50.720;7.452;2023-04-25T09:01:58;98940.03;;;7.96;100.00
30554;BME280;17335;50.720;7.452;2023-04-25T09:04:25;98949.06;;;7.95;100.00
30554;BME280;17335;50.720;7.452;2023-04-25T09:06:52;98939.78;;;8.08;100.00
30554;BME280;17335;50.720;7.452;2023-04-25T09:09:19;98945.00;;;8.30;100.00
30554;BME280;17335;50.720;7.452;2023-04-25T09:11:45;98947.00;;;8.47;100.00
30554;BME280;17335;50.720;7.452;2023-04-25T09:14:20;98947.44;;;8.72;100.00
30554;BME280;17335;50.720;7.452;2023-04-25T09:16:57;98948.28;;;8.62;100.00
30554;BME280;17335;50.720;7.452;2023-04-25T09:19:27;98951.78;;;8.73;100.00
30554;BME280;17335;50.720;7.452;2023-04-25T09:22:07;98960.97;;;8.70;100.00
30554;BME280;17335;50.720;7.452;2023-04-25T09:24:43;98963.50;;;8.72;100.00
30554;BME280;17335;50.720;7.452;2023-04-25T09:27:16;98958.69;;;8.66;100.00
30554;BME280;17335;50.720;7.452;2023-04-25T09:29:44;98960.66;;;8.44;100.00
30554;BME280;17335;50.720;7.452;2023-04-25T09:32:22;98964.91;;;8.56;100.00
30554;BME280;17335;50.720;7.452;2023-04-25T09:34:51;98961.94;;;8.50;100.00
30554;BME280;17335;50.720;7.452;2023-04-25T09:37:20;98962.50;;;8.53;100.00
30554;BME280;17335;50.720;7.452;2023-04-25T09:39:53;98972.38;;;8.43;100.00
30554;BME280;17335;50.720;7.452;2023-04-25T09:42:24;98978.38;;;8.25;100.00
30554;BME280;17335;50.720;7.452;2023-04-25T09:44:52;98982.28;;;8.21;100.00
30554;BME280;17335;50.720;7.452;2023-04-25T09:47:21;98988.31;;;8.04;100.00
30554;BME280;17335;50.720;7.452;2023-04-25T09:49:50;98983.81;;;7.95;100.00
30554;BME280;17335;50.720;7.452;2023-04-25T09:52:20;98987.72;;;7.81;100.00
30554;BME280;17335;50.720;7.452;2023-04-25T09:54:50;98992.63;;;7.85;100.00
30554;BME280;17335;50.720;7.452;2023-04-25T09:57:20;98997.38;;;7.72;100.00
30554;BME280;17335;50.720;7.452;2023-04-25T09:59:54;98996.13;;;7.76;100.00
30554;BME280;17335;50.720;7.452;2023-04-25T10:02:23;99003.56;;;7.73;100.00
30554;BME280;17335;50.720;7.452;2023-04-25T10:04:51;99001.28;;;7.68;100.00
30554;BME280;17335;50.720;7.452;2023-04-25T10:07:23;99004.22;;;7.65;100.00
30554;BME280;17335;50.720;7.452;2023-04-25T10:09:58;99013.25;;;7.64;100.00
30554;BME280;17335;50.720;7.452;2023-04-25T10:12:33;99006.88;;;7.55;100.00
30554;BME280;17335;50.720;7.452;2023-04-25T10:15:01;99006.19;;;7.63;100.00
30554;BME280;17335;50.720;7.452;2023-04-25T10:17:29;99013.31;;;7.83;100.00
30554;BME280;17335;50.720;7.452;2023-04-25T10:19:56;99014.88;;;7.96;100.00
30554;BME280;17335;50.720;7.452;2023-04-25T10:22:41;99013.50;;;8.11;100.00
30554;BME280;17335;50.720;7.452;2023-04-25T10:25:09;99018.06;;;8.20;100.00
30554;BME280;17335;50.720;7.452;2023-04-25T10:27:38;99025.06;;;8.12;100.00
30554;BME280;17335;50.720;7.452;2023-04-25T10:30:10;99014.00;;;8.36;100.00
30554;BME280;17335;50.720;7.452;2023-04-25T10:32:43;99015.72;;;8.47;100.00
30554;BME280;17335;50.720;7.452;2023-04-25T10:35:24;99022.22;;;8.63;100.00
30554;BME280;17335;50.720;7.452;2023-04-25T10:40:26;99019.81;;;8.51;100.00
30554;BME280;17335;50.720;7.452;2023-04-25T10:42:53;99017.97;;;8.61;100.00
30554;BME280;17335;50.720;7.452;2023-04-25T10:45:23;99014.19;;;8.83;100.00
30554;BME280;17335;50.720;7.452;2023-04-25T10:47:49;99020.22;;;9.05;100.00
30554;BME280;17335;50.720;7.452;2023-04-25T10:50:16;99026.28;;;9.07;100.00
30554;BME280;17335;50.720;7.452;2023-04-25T10:52:43;99027.44;;;8.94;100.00
30554;BME280;17335;50.720;7.452;2023-04-25T10:55:11;99021.06;;;9.15;100.00
30554;BME280;17335;50.720;7.452;2023-04-25T10:57:45;99038.66;;;9.27;100.00
30554;BME280;17335;50.720;7.452;2023-04-25T11:00:18;99036.13;;;9.26;100.00
30554;BME280;17335;50.720;7.452;2023-04-25T11:02:52;99035.19;;;8.97;100.00
30554;BME280;17335;50.720;7.452;2023-04-25T11:07:58;99044.19;;;8.77;100.00
30554;BME280;17335;50.720;7.452;2023-04-25T11:10:33;99045.72;;;8.70;100.00
30554;BME280;17335;50.720;7.452;2023-04-25T11:13:03;99045.59;;;8.61;100.00
30554;BME280;17335;50.720;7.452;2023-04-25T11:15:30;99036.72;;;8.51;100.00
30554;BME280;17335;50.720;7.452;2023-04-25T11:17:56;99037.97;;;8.47;100.00
30554;BME280;17335;50.720;7.452;2023-04-25T11:20:25;99036.56;;;8.43;100.00
30554;BME280;17335;50.720;7.452;2023-04-25T11:22:57;99044.81;;;8.40;100.00
30554;BME280;17335;50.720;7.452;2023-04-25T11:25:24;99040.38;;;8.50;100.00
30554;BME280;17335;50.720;7.452;2023-04-25T11:27:53;99042.06;;;8.71;100.00
30554;BME280;17335;50.720;7.452;2023-04-25T11:30:20;99034.91;;;8.81;100.00
30554;BME280;17335;50.720;7.452;2023-04-25T11:32:48;99026.84;;;9.00;100.00
30554;BME280;17335;50.720;7.452;2023-04-25T11:35:14;99034.44;;;9.15;100.00
30554;BME280;17335;50.720;7.452;2023-04-25T11:37:42;99022.19;;;9.12;100.00
30554;BME280;17335;50.720;7.452;2023-04-25T11:40:10;99028.41;;;9.13;100.00
30554;BME280;17335;50.720;7.452;2023-04-25T11:42:38;99031.19;;;9.21;100.00
30554;BME280;17335;50.720;7.452;2023-04-25T11:45:06;99028.41;;;9.13;100.00
30554;BME280;17335;50.720;7.452;2023-04-25T11:47:33;99035.09;;;9.36;100.00
30554;BME280;17335;50.720;7.452;2023-04-25T11:50:01;99020.06;;;10.01;100.00
30554;BME280;17335;50.720;7.452;2023-04-25T11:52:39;99020.16;;;10.37;100.00
30554;BME280;17335;50.720;7.452;2023-04-25T11:55:12;99026.84;;;10.86;100.00
30554;BME280;17335;50.720;7.452;2023-04-25T11:57:41;99017.56;;;10.81;96.91
30554;BME280;17335;50.720;7.452;2023-04-25T12:00:15;99031.44;;;10.58;100.00
30554;BME280;17335;50.720;7.452;2023-04-25T12:02:46;99034.63;;;9.88;98.96
30554;BME280;17335;50.720;7.452;2023-04-25T12:05:14;99038.59;;;9.56;100.00
30554;BME280;17335;50.720;7.452;2023-04-25T12:08:09;99037.50;;;9.30;100.00
30554;BME280;17335;50.720;7.452;2023-04-25T12:10:38;99048.41;;;9.09;100.00
30554;BME280;17335;50.720;7.452;2023-04-25T12:13:24;99047.72;;;8.77;100.00
30554;BME280;17335;50.720;7.452;2023-04-25T12:15:51;99048.66;;;8.47;100.00
30554;BME280;17335;50.720;7.452;2023-04-25T12:18:22;99065.53;;;8.38;100.00
30554;BME280;17335;50.720;7.452;2023-04-25T12:20:49;99060.78;;;8.51;100.00
30554;BME280;17335;50.720;7.452;2023-04-25T12:23:16;99065.72;;;8.66;100.00
30554;BME280;17335;50.720;7.452;2023-04-25T12:25:43;99066.16;;;8.71;100.00
30554;BME280;17335;50.720;7.452;2023-04-25T12:28:23;99060.38;;;8.85;100.00
30554;BME280;17335;50.720;7.452;2023-04-25T12:31:06;99061.34;;;9.23;100.00
30554;BME280;17335;50.720;7.452;2023-04-25T12:33:34;99065.69;;;9.44;100.00
30554;BME280;17335;50.720;7.452;2023-04-25T12:36:03;99069.91;;;9.56;100.00
30554;BME280;17335;50.720;7.452;2023-04-25T12:38:41;99059.88;;;9.48;100.00
30554;BME280;17335;50.720;7.452;2023-04-25T12:41:08;99070.34;;;9.42;99.68
30554;BME280;17335;50.720;7.452;2023-04-25T12:43:35;99066.00;;;9.31;100.00
30554;BME280;17335;50.720;7.452;2023-04-25T12:46:02;99064.00;;;9.23;100.00
30554;BME280;17335;50.720;7.452;2023-04-25T12:48:29;99065.84;;;9.42;100.00
30554;BME280;17335;50.720;7.452;2023-04-25T12:50:56;99057.06;;;9.60;97.50
30554;BME280;17335;50.720;7.452;2023-04-25T12:53:23;99073.22;;;9.68;98.99
30554;BME280;17335;50.720;7.452;2023-04-25T12:55:52;99062.31;;;9.42;94.01
30554;BME280;17335;50.720;7.452;2023-04-25T12:58:24;99062.69;;;9.56;98.40
30554;BME280;17335;50.720;7.452;2023-04-25T13:00:51;99062.88;;;9.92;94.98
30554;BME280;17335;50.720;7.452;2023-04-25T13:03:18;99061.66;;;10.42;96.19
30554;BME280;17335;50.720;7.452;2023-04-25T13:05:45;99047.97;;;10.81;94.33
30554;BME280;17335;50.720;7.452;2023-04-25T13:08:11;99039.09;;;11.07;94.99
30554;BME280;17335;50.720;7.452;2023-04-25T13:10:38;99038.41;;;11.23;90.42